createdAt,value
2018-12-26T00:01:25.918Z,1.40
2018-12-26T00:03:55.320Z,1.50
2018-12-26T00:06:24.944Z,1.40
2018-12-26T00:08:54.307Z,1.50
2018-12-26T00:11:24.165Z,1.50
2018-12-26T00:13:53.471Z,1.40
2018-12-26T00:16:22.690Z,1.30
2018-12-26T00:18:52.503Z,1.40
2018-12-26T00:21:22.262Z,1.30
2018-12-26T00:23:51.664Z,1.40
2018-12-26T00:26:21.213Z,1.40
2018-12-26T00:28:52.573Z,1.30
2018-12-26T00:31:22.137Z,1.30
2018-12-26T00:33:51.619Z,1.30
2018-12-26T00:36:21.183Z,1.20
2018-12-26T00:38:50.804Z,1.20
2018-12-26T00:41:20.277Z,1.20
2018-12-26T00:43:49.652Z,1.10
2018-12-26T00:46:19.072Z,1.20
2018-12-26T00:48:48.662Z,1.20
2018-12-26T00:51:18.477Z,1.20
2018-12-26T00:53:49.339Z,1.10
2018-12-26T00:56:18.588Z,1.10
2018-12-26T00:58:48.029Z,1.10
2018-12-26T01:01:17.142Z,1.20
2018-12-26T01:03:46.540Z,1.20
2018-12-26T01:06:18.723Z,1.00
2018-12-26T01:09:10.686Z,1.00
2018-12-26T01:11:40.757Z,1.00
2018-12-26T01:14:14.183Z,0.90
2018-12-26T01:16:43.378Z,0.90
2018-12-26T01:19:17.471Z,1.00
2018-12-26T01:21:48.474Z,1.00
2018-12-26T01:24:20.267Z,1.10
2018-12-26T01:26:51.372Z,1.10
2018-12-26T01:29:22.419Z,1.00
2018-12-26T01:31:52.152Z,1.20
2018-12-26T01:34:27.177Z,1.20
2018-12-26T01:37:01.901Z,1.20
2018-12-26T01:40:17.735Z,1.10
2018-12-26T01:42:51.915Z,1.20
2018-12-26T01:45:21.803Z,1.20
2018-12-26T01:47:52.870Z,1.20
2018-12-26T01:50:22.988Z,1.10
2018-12-26T01:52:53.566Z,1.10
2018-12-26T01:55:23.217Z,1.00
2018-12-26T02:00:49.218Z,1.10
2018-12-26T02:03:21.975Z,1.10
2018-12-26T02:05:54.756Z,1.20
2018-12-26T02:08:49.775Z,1.10
2018-12-26T02:11:20.203Z,1.00
2018-12-26T02:13:51.474Z,0.90
2018-12-26T02:16:21.766Z,1.00
2018-12-26T02:18:54.162Z,1.00
2018-12-26T02:21:27.726Z,1.00
2018-12-26T02:24:02.328Z,1.00
2018-12-26T02:26:51.180Z,1.00
2018-12-26T02:29:31.783Z,1.00
2018-12-26T02:32:18.325Z,1.00
2018-12-26T02:34:53.004Z,1.00
2018-12-26T02:37:30.227Z,0.90
2018-12-26T02:40:03.026Z,0.90
2018-12-26T02:42:42.836Z,0.80
2018-12-26T02:45:40.914Z,0.80
2018-12-26T02:48:22.341Z,0.80
2018-12-26T02:51:33.482Z,0.80
2018-12-26T02:54:18.016Z,0.70
2018-12-26T02:57:02.051Z,0.60
2018-12-26T02:59:39.179Z,0.60
2018-12-26T03:02:36.949Z,0.60
2018-12-26T03:05:20.236Z,0.60
2018-12-26T03:08:35.609Z,0.60
2018-12-26T03:11:28.457Z,0.60
2018-12-26T03:14:31.301Z,0.60
2018-12-26T03:17:26.545Z,0.70
2018-12-26T03:20:05.876Z,0.70
2018-12-26T03:22:54.328Z,0.50
2018-12-26T03:25:29.239Z,0.60
2018-12-26T03:28:32.328Z,0.40
2018-12-26T03:31:14.654Z,0.40
2018-12-26T03:34:31.258Z,0.50
2018-12-26T03:38:17.239Z,0.60
2018-12-26T03:44:54.527Z,0.50
2018-12-26T03:48:00.440Z,0.50
2018-12-26T03:51:42.090Z,0.50
2018-12-26T03:54:47.838Z,0.40
2018-12-26T03:57:41.250Z,0.30
2018-12-26T04:00:35.906Z,0.40
2018-12-26T04:03:52.628Z,0.50
2018-12-26T04:07:16.365Z,0.40
2018-12-26T04:10:23.145Z,0.40
2018-12-26T04:13:14.956Z,0.40
2018-12-26T04:16:04.897Z,0.50
2018-12-26T04:30:06.553Z,0.40
2018-12-26T04:36:06.149Z,0.40
2018-12-26T04:39:49.307Z,0.40
2018-12-26T04:43:25.993Z,0.30
2018-12-26T04:46:17.326Z,0.40
2018-12-26T04:53:24.374Z,0.50
2018-12-26T04:56:04.457Z,0.40
2018-12-26T04:58:48.817Z,0.30
2018-12-26T05:01:31.877Z,0.40
2018-12-26T05:04:18.497Z,0.30
2018-12-26T05:07:22.655Z,0.10
2018-12-26T05:10:48.422Z,0.20
2018-12-26T05:17:55.257Z,0.40
2018-12-26T11:16:56.896Z,4.90
2018-12-26T11:19:40.290Z,4.90
2018-12-26T11:22:22.374Z,4.90
2018-12-26T11:35:36.177Z,5.20
2018-12-26T11:35:36.308Z,5.10
2018-12-26T11:38:15.195Z,5.40
2018-12-26T11:38:57.656Z,5.10
2018-12-26T11:41:14.519Z,5.50
2018-12-26T11:44:44.247Z,5.50
2018-12-26T11:47:13.532Z,5.30
2018-12-26T11:53:39.006Z,5.60
2018-12-26T12:00:39.827Z,5.70
2018-12-26T12:06:37.754Z,5.40
2018-12-26T12:08:13.980Z,5.60
2018-12-26T12:13:14.953Z,5.70
2018-12-26T12:16:46.955Z,5.60
2018-12-26T12:20:07.114Z,5.60
2018-12-26T12:23:01.722Z,5.90
2018-12-26T12:32:42.415Z,6.00
2018-12-26T12:42:57.800Z,6.10
2018-12-26T13:09:27.727Z,6.30
2018-12-26T13:34:19.950Z,6.30
2018-12-26T13:46:08.438Z,6.00
2018-12-26T13:48:39.010Z,6.00
2018-12-26T13:51:10.066Z,5.90
2018-12-26T13:53:39.228Z,5.80
2018-12-26T13:56:08.129Z,6.00
2018-12-26T13:58:37.201Z,6.00
2018-12-26T14:01:06.288Z,5.90
2018-12-26T14:03:35.432Z,6.10
2018-12-26T14:06:04.629Z,5.80
2018-12-26T14:08:33.807Z,6.10
2018-12-26T14:11:03.079Z,6.20
2018-12-26T14:13:32.272Z,6.30
2018-12-26T14:16:01.417Z,6.20
2018-12-26T14:18:30.508Z,6.20
2018-12-26T14:20:59.829Z,6.30
2018-12-26T14:23:29.347Z,6.30
2018-12-26T14:25:58.632Z,6.20
2018-12-26T14:28:27.789Z,6.20
2018-12-26T14:30:57.089Z,6.10
2018-12-26T14:33:26.673Z,6.10
2018-12-26T14:35:58.729Z,6.10
2018-12-26T14:38:28.082Z,6.10
2018-12-26T14:40:57.061Z,6.20
2018-12-26T14:43:26.074Z,6.10
2018-12-26T14:45:55.585Z,6.10
2018-12-26T14:48:24.618Z,6.10
2018-12-26T14:50:53.631Z,6.10
2018-12-26T14:53:22.661Z,6.00
2018-12-26T14:55:51.857Z,6.10
2018-12-26T14:58:20.866Z,6.10
2018-12-26T15:00:49.915Z,5.90
2018-12-26T15:03:19.002Z,5.70
2018-12-26T15:05:48.377Z,5.60
2018-12-26T15:08:17.449Z,5.70
2018-12-26T15:10:46.518Z,5.70
2018-12-26T15:13:15.670Z,5.70
2018-12-26T15:15:45.003Z,5.80
2018-12-26T15:18:14.108Z,5.80
2018-12-26T15:20:43.135Z,5.70
2018-12-26T15:23:12.099Z,5.60
2018-12-26T15:25:41.126Z,5.40
2018-12-26T15:28:10.203Z,5.40
2018-12-26T15:30:39.234Z,5.40
2018-12-26T15:33:08.570Z,5.40
2018-12-26T15:35:37.702Z,5.40
2018-12-26T15:38:07.839Z,5.40
2018-12-26T15:40:36.890Z,5.30
2018-12-26T15:43:05.918Z,5.30
2018-12-26T15:45:34.972Z,5.20
2018-12-26T15:48:04.482Z,5.10
2018-12-26T15:50:33.868Z,5.10
2018-12-26T15:53:03.069Z,4.90
2018-12-26T15:55:32.484Z,4.90
2018-12-26T15:58:01.820Z,4.80
2018-12-26T16:00:37.400Z,4.80
2018-12-26T16:03:01.745Z,4.70
2018-12-26T16:05:31.086Z,4.50
2018-12-26T16:08:00.205Z,4.40
2018-12-26T16:10:29.311Z,4.40
2018-12-26T16:12:58.398Z,4.50
2018-12-26T16:15:27.567Z,4.50
2018-12-26T16:17:56.644Z,4.40
2018-12-26T16:20:26.179Z,4.40
2018-12-26T16:22:55.190Z,4.30
2018-12-26T16:25:24.466Z,4.20
2018-12-26T16:27:53.422Z,4.20
2018-12-26T16:30:22.600Z,4.10
2018-12-26T16:32:51.654Z,4.10
2018-12-26T16:35:20.749Z,4.10
2018-12-26T16:37:49.962Z,3.90
2018-12-26T16:40:18.988Z,3.90
2018-12-26T16:42:48.042Z,3.90
2018-12-26T16:45:17.118Z,3.80
2018-12-26T16:47:46.164Z,3.80
2018-12-26T16:50:15.300Z,3.80
2018-12-26T16:52:44.668Z,3.80
2018-12-26T16:55:13.795Z,3.60
2018-12-26T16:57:42.764Z,3.60
2018-12-26T17:00:12.097Z,3.60
2018-12-26T17:02:41.285Z,3.50
2018-12-26T17:05:10.419Z,3.40
2018-12-26T17:07:39.505Z,3.40
2018-12-26T17:10:11.055Z,3.40
2018-12-26T17:12:40.427Z,3.40
2018-12-26T17:15:09.488Z,3.40
2018-12-26T17:17:38.816Z,3.30
2018-12-26T17:20:07.951Z,3.30
2018-12-26T17:22:37.022Z,3.20
2018-12-26T17:25:08.994Z,3.20
2018-12-26T17:27:38.087Z,3.10
2018-12-26T17:30:07.793Z,3.10
2018-12-26T17:32:37.163Z,3.20
2018-12-26T17:35:06.384Z,3.30
2018-12-26T17:37:35.719Z,3.40
2018-12-26T17:40:05.860Z,3.30
2018-12-26T17:42:35.278Z,3.40
2018-12-26T17:45:05.157Z,3.50
2018-12-26T17:47:34.320Z,3.40
2018-12-26T17:50:52.464Z,3.30
2018-12-26T17:53:46.081Z,3.30
2018-12-26T17:56:26.854Z,3.40
2018-12-26T17:59:10.785Z,3.20
2018-12-26T18:01:49.330Z,3.40
2018-12-26T18:04:18.929Z,3.40
2018-12-26T18:06:48.285Z,3.40
2018-12-26T18:09:20.370Z,3.30
2018-12-26T18:11:51.477Z,3.40
2018-12-26T18:14:20.227Z,3.50
2018-12-26T18:16:49.364Z,3.30
2018-12-26T18:19:18.481Z,3.20
2018-12-26T18:21:47.684Z,3.20
2018-12-26T18:24:17.051Z,3.30
2018-12-26T18:26:46.175Z,3.20
2018-12-26T18:29:15.376Z,3.20
2018-12-26T18:31:46.059Z,3.20
2018-12-26T18:34:15.174Z,3.20
2018-12-26T18:36:46.755Z,3.10
2018-12-26T18:39:15.794Z,3.10
2018-12-26T18:41:48.016Z,3.00
2018-12-26T18:44:17.080Z,3.00
2018-12-26T18:46:49.497Z,3.00
2018-12-26T18:49:18.730Z,3.00
2018-12-26T18:51:47.757Z,2.90
2018-12-26T18:54:16.894Z,3.00
2018-12-26T18:56:47.222Z,3.00
2018-12-26T18:59:19.198Z,3.00
2018-12-26T19:01:50.590Z,3.00
2018-12-26T19:04:20.530Z,3.10
2018-12-26T19:06:49.899Z,3.10
2018-12-26T19:09:19.456Z,3.20
2018-12-26T19:11:48.598Z,3.10
2018-12-26T19:14:17.702Z,3.00
2018-12-26T19:16:46.884Z,3.00
2018-12-26T19:19:15.965Z,3.00
2018-12-26T19:21:45.129Z,3.10
2018-12-26T19:24:14.506Z,3.00
2018-12-26T19:26:43.574Z,3.00
2018-12-26T19:29:12.613Z,2.80
2018-12-26T19:31:41.869Z,2.70
2018-12-26T19:34:10.958Z,2.80
2018-12-26T19:36:39.970Z,2.80
2018-12-26T19:39:09.319Z,2.70
2018-12-26T19:41:38.463Z,2.60
2018-12-26T19:44:07.638Z,2.50
2018-12-26T19:46:36.969Z,2.60
2018-12-26T19:49:06.049Z,2.60
2018-12-26T19:51:35.118Z,2.60
2018-12-26T19:54:04.137Z,2.60
2018-12-26T19:56:33.156Z,2.50
2018-12-26T19:59:02.258Z,2.50
2018-12-26T20:01:31.287Z,2.60
2018-12-26T20:04:01.426Z,2.50
2018-12-26T20:06:32.313Z,2.40
2018-12-26T20:09:01.303Z,2.30
2018-12-26T20:11:30.594Z,2.30
2018-12-26T20:13:59.913Z,2.30
2018-12-26T20:16:29.006Z,2.30
2018-12-26T20:18:58.247Z,2.10
2018-12-26T20:21:28.091Z,2.10
2018-12-26T20:23:57.177Z,2.00
2018-12-26T20:26:26.348Z,2.00
2018-12-26T20:28:55.645Z,2.20
2018-12-26T20:31:24.962Z,2.30
2018-12-26T20:33:54.028Z,2.30
2018-12-26T20:36:23.093Z,2.40
2018-12-26T20:38:52.155Z,2.40
2018-12-26T20:41:21.282Z,2.40
2018-12-26T20:43:50.468Z,2.40
2018-12-26T20:46:19.574Z,2.50
2018-12-26T20:48:48.570Z,2.60
2018-12-26T20:51:17.680Z,2.60
2018-12-26T20:53:46.885Z,2.60
2018-12-26T20:56:15.947Z,2.40
2018-12-26T20:58:44.979Z,2.20
2018-12-26T21:01:14.141Z,2.30
2018-12-26T21:03:43.197Z,2.50
2018-12-26T21:06:12.231Z,2.60
2018-12-26T21:08:41.361Z,2.40
2018-12-26T21:11:10.219Z,2.40
2018-12-26T21:13:39.309Z,2.50
2018-12-26T21:16:08.415Z,2.50
2018-12-26T21:18:37.506Z,2.60
2018-12-26T21:21:06.605Z,2.50
2018-12-26T21:23:35.672Z,2.40
2018-12-26T21:26:04.966Z,2.60
2018-12-26T21:28:34.133Z,2.30
2018-12-26T21:31:04.634Z,2.40
2018-12-26T21:33:33.823Z,2.60
2018-12-26T21:36:03.365Z,2.70
2018-12-26T21:38:33.150Z,2.60
2018-12-26T21:41:02.237Z,2.70
2018-12-26T21:43:31.307Z,2.70
2018-12-26T21:46:00.510Z,2.80
2018-12-26T21:48:29.553Z,2.70
2018-12-26T21:50:58.609Z,2.70
2018-12-26T21:53:27.832Z,2.90
2018-12-26T21:55:57.006Z,2.80
2018-12-26T21:58:26.317Z,2.70
2018-12-26T22:00:55.711Z,2.80
2018-12-26T22:03:24.848Z,2.80
2018-12-26T22:05:54.158Z,2.80
2018-12-26T22:08:23.397Z,2.90
2018-12-26T22:10:52.429Z,2.90
2018-12-26T22:13:21.860Z,2.90
2018-12-26T22:15:53.938Z,2.90
2018-12-26T22:18:23.892Z,2.70
2018-12-26T22:20:52.948Z,2.90
2018-12-26T22:23:22.568Z,3.00
2018-12-26T22:25:51.816Z,3.00
2018-12-26T22:28:21.027Z,3.00
2018-12-26T22:30:50.142Z,3.10
2018-12-26T22:33:19.183Z,2.90
2018-12-26T22:35:48.162Z,2.90
2018-12-26T22:38:17.193Z,3.00
2018-12-26T22:40:46.319Z,3.10
2018-12-26T22:43:16.106Z,3.10
2018-12-26T22:45:45.210Z,3.10
2018-12-26T22:48:14.601Z,3.00
2018-12-26T22:50:45.557Z,2.80
2018-12-26T22:53:16.217Z,2.60
2018-12-26T22:55:47.144Z,2.70
2018-12-26T22:58:16.105Z,2.90
2018-12-26T23:00:46.212Z,2.60
2018-12-26T23:03:15.388Z,2.80
2018-12-26T23:05:44.472Z,2.90
2018-12-26T23:08:14.196Z,3.00
2018-12-26T23:10:43.240Z,2.90
2018-12-26T23:13:12.190Z,2.90
2018-12-26T23:15:41.284Z,2.90
2018-12-26T23:18:10.312Z,3.10
2018-12-26T23:20:39.347Z,3.10
2018-12-26T23:23:08.373Z,3.20
2018-12-26T23:25:37.468Z,3.20
2018-12-26T23:28:06.987Z,3.30
2018-12-26T23:30:36.034Z,3.20
2018-12-26T23:33:05.203Z,3.30
2018-12-26T23:35:34.310Z,3.30
2018-12-26T23:38:03.686Z,3.10
2018-12-26T23:40:32.809Z,3.00
2018-12-26T23:43:02.180Z,3.00
2018-12-26T23:45:31.206Z,3.10
2018-12-26T23:48:00.358Z,3.20
2018-12-26T23:50:30.513Z,3.30
2018-12-26T23:52:59.548Z,3.30
2018-12-26T23:55:30.176Z,3.30
2018-12-26T23:58:01.918Z,3.30
